sensor_id;sensor_type;location;lat;lon;timestamp;P1;durP1;ratioP1;P2;durP2;ratioP2
10667;SDS011;5382;42.136;24.796;2023-04-08T00:00:42;9.15;;;7.65;;
10667;SDS011;5382;42.136;24.796;2023-04-08T00:03:09;10.88;;;7.82;;
10667;SDS011;5382;42.136;24.796;2023-04-08T00:05:36;7.75;;;6.18;;
10667;SDS011;5382;42.136;24.796;2023-04-08T00:08:02;11.07;;;7.97;;
10667;SDS011;5382;42.136;24.796;2023-04-08T00:10:29;9.82;;;7.65;;
10667;SDS011;5382;42.136;24.796;2023-04-08T00:12:57;11.25;;;7.53;;
10667;SDS011;5382;42.136;24.796;2023-04-08T00:15:25;10.30;;;8.18;;
10667;SDS011;5382;42.136;24.796;2023-04-08T00:17:51;11.32;;;7.60;;
10667;SDS011;5382;42.136;24.796;2023-04-08T00:20:18;12.13;;;7.43;;
10667;SDS011;5382;42.136;24.796;2023-04-08T00:22:45;10.55;;;7.90;;
10667;SDS011;5382;42.136;24.796;2023-04-08T00:25:12;13.25;;;8.18;;
10667;SDS011;5382;42.136;24.796;2023-04-08T00:27:39;11.13;;;8.15;;
10667;SDS011;5382;42.136;24.796;2023-04-08T00:30:08;11.07;;;8.23;;
10667;SDS011;5382;42.136;24.796;2023-04-08T00:32:35;10.73;;;7.78;;
10667;SDS011;5382;42.136;24.796;2023-04-08T00:35:02;8.23;;;7.30;;
10667;SDS011;5382;42.136;24.796;2023-04-08T00:37:29;10.18;;;7.93;;
10667;SDS011;5382;42.136;24.796;2023-04-08T00:39:56;8.93;;;7.65;;
10667;SDS011;5382;42.136;24.796;2023-04-08T00:42:23;8.35;;;7.43;;
10667;SDS011;5382;42.136;24.796;2023-04-08T00:44:50;9.93;;;8.10;;
10667;SDS011;5382;42.136;24.796;2023-04-08T00:47:18;10.98;;;7.63;;
10667;SDS011;5382;42.136;24.796;2023-04-08T00:49:45;9.68;;;7.07;;
10667;SDS011;5382;42.136;24.796;2023-04-08T00:52:12;8.88;;;7.78;;
10667;SDS011;5382;42.136;24.796;2023-04-08T00:54:40;12.05;;;8.77;;
10667;SDS011;5382;42.136;24.796;2023-04-08T00:57:07;13.00;;;8.00;;
10667;SDS011;5382;42.136;24.796;2023-04-08T00:59:34;11.30;;;8.15;;
10667;SDS011;5382;42.136;24.796;2023-04-08T01:02:04;10.85;;;8.63;;
10667;SDS011;5382;42.136;24.796;2023-04-08T01:04:45;11.80;;;8.60;;
10667;SDS011;5382;42.136;24.796;2023-04-08T01:07:19;11.02;;;8.52;;
10667;SDS011;5382;42.136;24.796;2023-04-08T01:09:51;9.65;;;8.43;;
10667;SDS011;5382;42.136;24.796;2023-04-08T01:12:21;14.15;;;9.32;;
10667;SDS011;5382;42.136;24.796;2023-04-08T01:14:54;10.63;;;8.68;;
10667;SDS011;5382;42.136;24.796;2023-04-08T01:17:25;13.10;;;9.80;;
10667;SDS011;5382;42.136;24.796;2023-04-08T01:19:53;13.15;;;9.68;;
10667;SDS011;5382;42.136;24.796;2023-04-08T01:22:25;11.65;;;8.45;;
10667;SDS011;5382;42.136;24.796;2023-04-08T01:25:01;12.25;;;8.30;;
10667;SDS011;5382;42.136;24.796;2023-04-08T01:27:33;12.95;;;8.63;;
10667;SDS011;5382;42.136;24.796;2023-04-08T01:30:01;13.70;;;9.25;;
10667;SDS011;5382;42.136;24.796;2023-04-08T01:32:30;13.57;;;9.13;;
10667;SDS011;5382;42.136;24.796;2023-04-08T01:34:58;10.25;;;8.70;;
10667;SDS011;5382;42.136;24.796;2023-04-08T01:37:27;12.50;;;9.88;;
10667;SDS011;5382;42.136;24.796;2023-04-08T01:39:55;13.80;;;9.93;;
10667;SDS011;5382;42.136;24.796;2023-04-08T01:42:24;12.02;;;9.55;;
10667;SDS011;5382;42.136;24.796;2023-04-08T01:44:56;13.25;;;8.52;;
10667;SDS011;5382;42.136;24.796;2023-04-08T01:47:24;14.02;;;10.18;;
10667;SDS011;5382;42.136;24.796;2023-04-08T01:49:52;13.18;;;8.93;;
10667;SDS011;5382;42.136;24.796;2023-04-08T01:52:20;10.43;;;8.57;;
10667;SDS011;5382;42.136;24.796;2023-04-08T01:54:48;14.75;;;9.85;;
10667;SDS011;5382;42.136;24.796;2023-04-08T01:57:16;11.48;;;8.20;;
10667;SDS011;5382;42.136;24.796;2023-04-08T01:59:49;16.38;;;8.10;;
10667;SDS011;5382;42.136;24.796;2023-04-08T02:02:19;17.13;;;9.77;;
10667;SDS011;5382;42.136;24.796;2023-04-08T02:04:47;14.93;;;8.70;;
10667;SDS011;5382;42.136;24.796;2023-04-08T02:07:14;11.60;;;8.75;;
10667;SDS011;5382;42.136;24.796;2023-04-08T02:09:42;13.77;;;9.20;;
10667;SDS011;5382;42.136;24.796;2023-04-08T02:12:08;13.10;;;8.95;;
10667;SDS011;5382;42.136;24.796;2023-04-08T02:14:36;13.60;;;8.93;;
10667;SDS011;5382;42.136;24.796;2023-04-08T02:17:04;12.52;;;9.32;;
10667;SDS011;5382;42.136;24.796;2023-04-08T02:19:40;11.25;;;9.07;;
10667;SDS011;5382;42.136;24.796;2023-04-08T02:22:15;13.27;;;10.38;;
10667;SDS011;5382;42.136;24.796;2023-04-08T02:24:45;12.55;;;8.48;;
10667;SDS011;5382;42.136;24.796;2023-04-08T02:27:12;13.07;;;9.70;;
10667;SDS011;5382;42.136;24.796;2023-04-08T02:29:41;12.68;;;9.50;;
10667;SDS011;5382;42.136;24.796;2023-04-08T02:32:10;15.27;;;10.20;;
10667;SDS011;5382;42.136;24.796;2023-04-08T02:34:38;12.60;;;9.07;;
10667;SDS011;5382;42.136;24.796;2023-04-08T02:37:07;16.90;;;10.38;;
10667;SDS011;5382;42.136;24.796;2023-04-08T02:39:34;15.57;;;10.35;;
10667;SDS011;5382;42.136;24.796;2023-04-08T02:42:01;12.95;;;10.25;;
10667;SDS011;5382;42.136;24.796;2023-04-08T02:44:29;15.02;;;10.43;;
10667;SDS011;5382;42.136;24.796;2023-04-08T02:46:56;13.30;;;10.00;;
10667;SDS011;5382;42.136;24.796;2023-04-08T02:49:23;14.52;;;11.00;;
10667;SDS011;5382;42.136;24.796;2023-04-08T02:51:51;14.93;;;10.52;;
10667;SDS011;5382;42.136;24.796;2023-04-08T02:54:18;15.45;;;10.43;;
10667;SDS011;5382;42.136;24.796;2023-04-08T02:56:45;15.45;;;10.98;;
10667;SDS011;5382;42.136;24.796;2023-04-08T02:59:11;16.75;;;11.32;;
10667;SDS011;5382;42.136;24.796;2023-04-08T03:01:38;16.02;;;11.02;;
10667;SDS011;5382;42.136;24.796;2023-04-08T03:04:05;13.27;;;10.15;;
10667;SDS011;5382;42.136;24.796;2023-04-08T03:06:32;17.52;;;10.63;;
10667;SDS011;5382;42.136;24.796;2023-04-08T03:09:00;13.73;;;10.43;;
10667;SDS011;5382;42.136;24.796;2023-04-08T03:11:27;14.75;;;11.50;;
10667;SDS011;5382;42.136;24.796;2023-04-08T03:13:53;16.30;;;12.18;;
10667;SDS011;5382;42.136;24.796;2023-04-08T03:16:20;15.13;;;11.00;;
10667;SDS011;5382;42.136;24.796;2023-04-08T03:18:48;16.10;;;11.57;;
10667;SDS011;5382;42.136;24.796;2023-04-08T03:21:15;19.90;;;12.35;;
10667;SDS011;5382;42.136;24.796;2023-04-08T03:23:42;19.05;;;11.48;;
10667;SDS011;5382;42.136;24.796;2023-04-08T03:26:10;15.30;;;12.10;;
10667;SDS011;5382;42.136;24.796;2023-04-08T03:28:37;16.85;;;11.20;;
10667;SDS011;5382;42.136;24.796;2023-04-08T03:31:03;16.30;;;12.55;;
10667;SDS011;5382;42.136;24.796;2023-04-08T03:33:30;16.50;;;11.93;;
10667;SDS011;5382;42.136;24.796;2023-04-08T03:35:57;16.60;;;11.30;;
10667;SDS011;5382;42.136;24.796;2023-04-08T03:38:24;15.07;;;10.95;;
10667;SDS011;5382;42.136;24.796;2023-04-08T03:40:51;16.40;;;12.40;;
10667;SDS011;5382;42.136;24.796;2023-04-08T03:43:19;18.25;;;12.10;;
10667;SDS011;5382;42.136;24.796;2023-04-08T03:45:46;18.40;;;12.45;;
10667;SDS011;5382;42.136;24.796;2023-04-08T03:48:12;14.70;;;11.32;;
10667;SDS011;5382;42.136;24.796;2023-04-08T03:50:39;16.02;;;12.15;;
10667;SDS011;5382;42.136;24.796;2023-04-08T03:53:06;16.33;;;11.98;;
10667;SDS011;5382;42.136;24.796;2023-04-08T03:55:35;17.70;;;12.38;;
10667;SDS011;5382;42.136;24.796;2023-04-08T03:58:02;15.18;;;11.50;;
10667;SDS011;5382;42.136;24.796;2023-04-08T04:00:30;14.95;;;11.52;;
10667;SDS011;5382;42.136;24.796;2023-04-08T04:02:57;18.17;;;11.90;;
10667;SDS011;5382;42.136;24.796;2023-04-08T04:05:24;14.23;;;10.93;;
10667;SDS011;5382;42.136;24.796;2023-04-08T04:07:50;17.10;;;12.70;;
10667;SDS011;5382;42.136;24.796;2023-04-08T04:10:17;16.08;;;12.02;;
10667;SDS011;5382;42.136;24.796;2023-04-08T04:12:44;16.27;;;11.95;;
10667;SDS011;5382;42.136;24.796;2023-04-08T04:15:11;20.10;;;12.27;;
10667;SDS011;5382;42.136;24.796;2023-04-08T04:17:40;18.83;;;11.80;;
10667;SDS011;5382;42.136;24.796;2023-04-08T04:20:07;19.08;;;12.27;;
10667;SDS011;5382;42.136;24.796;2023-04-08T04:22:34;16.42;;;13.48;;
10667;SDS011;5382;42.136;24.796;2023-04-08T04:25:01;24.73;;;13.95;;
10667;SDS011;5382;42.136;24.796;2023-04-08T04:27:28;18.45;;;13.00;;
10667;SDS011;5382;42.136;24.796;2023-04-08T04:29:54;16.58;;;12.30;;
10667;SDS011;5382;42.136;24.796;2023-04-08T04:32:21;20.23;;;13.60;;
10667;SDS011;5382;42.136;24.796;2023-04-08T04:34:49;18.88;;;12.77;;
10667;SDS011;5382;42.136;24.796;2023-04-08T04:37:16;25.88;;;13.27;;
10667;SDS011;5382;42.136;24.796;2023-04-08T04:39:43;19.85;;;13.50;;
10667;SDS011;5382;42.136;24.796;2023-04-08T04:42:10;19.65;;;14.07;;
10667;SDS011;5382;42.136;24.796;2023-04-08T04:44:37;20.27;;;14.32;;
10667;SDS011;5382;42.136;24.796;2023-04-08T04:47:04;21.38;;;14.48;;
10667;SDS011;5382;42.136;24.796;2023-04-08T04:49:30;20.35;;;13.23;;
10667;SDS011;5382;42.136;24.796;2023-04-08T04:51:59;19.48;;;13.25;;
10667;SDS011;5382;42.136;24.796;2023-04-08T04:54:25;19.55;;;13.23;;
10667;SDS011;5382;42.136;24.796;2023-04-08T04:56:52;18.77;;;14.48;;
10667;SDS011;5382;42.136;24.796;2023-04-08T04:59:19;20.23;;;14.23;;
10667;SDS011;5382;42.136;24.796;2023-04-08T05:01:46;19.27;;;14.20;;
10667;SDS011;5382;42.136;24.796;2023-04-08T05:04:12;20.23;;;14.05;;
10667;SDS011;5382;42.136;24.796;2023-04-08T05:06:39;21.33;;;15.52;;
10667;SDS011;5382;42.136;24.796;2023-04-08T05:09:07;19.75;;;14.23;;
10667;SDS011;5382;42.136;24.796;2023-04-08T05:11:34;23.83;;;14.90;;
10667;SDS011;5382;42.136;24.796;2023-04-08T05:14:01;21.80;;;13.85;;
10667;SDS011;5382;42.136;24.796;2023-04-08T05:16:28;22.27;;;14.80;;
10667;SDS011;5382;42.136;24.796;2023-04-08T05:18:54;22.90;;;14.70;;
10667;SDS011;5382;42.136;24.796;2023-04-08T05:21:21;20.05;;;13.93;;
10667;SDS011;5382;42.136;24.796;2023-04-08T05:23:48;20.00;;;14.77;;
10667;SDS011;5382;42.136;24.796;2023-04-08T05:26:18;24.17;;;15.38;;
10667;SDS011;5382;42.136;24.796;2023-04-08T05:28:45;26.00;;;16.33;;
10667;SDS011;5382;42.136;24.796;2023-04-08T05:31:14;23.65;;;14.85;;
10667;SDS011;5382;42.136;24.796;2023-04-08T05:33:41;22.02;;;14.35;;
10667;SDS011;5382;42.136;24.796;2023-04-08T05:36:09;24.83;;;15.05;;
10667;SDS011;5382;42.136;24.796;2023-04-08T05:38:36;25.08;;;16.88;;
10667;SDS011;5382;42.136;24.796;2023-04-08T05:41:03;25.55;;;16.00;;
10667;SDS011;5382;42.136;24.796;2023-04-08T05:46:04;22.15;;;15.50;;
10667;SDS011;5382;42.136;24.796;2023-04-08T05:48:32;25.98;;;15.05;;
10667;SDS011;5382;42.136;24.796;2023-04-08T05:50:58;21.50;;;13.85;;
10667;SDS011;5382;42.136;24.796;2023-04-08T05:53:25;24.08;;;16.98;;
10667;SDS011;5382;42.136;24.796;2023-04-08T05:55:52;24.45;;;15.27;;
10667;SDS011;5382;42.136;24.796;2023-04-08T05:58:19;21.83;;;15.38;;
10667;SDS011;5382;42.136;24.796;2023-04-08T06:00:47;21.27;;;15.93;;
10667;SDS011;5382;42.136;24.796;2023-04-08T06:03:14;20.75;;;14.07;;
10667;SDS011;5382;42.136;24.796;2023-04-08T06:05:41;24.85;;;16.38;;
10667;SDS011;5382;42.136;24.796;2023-04-08T06:08:07;25.55;;;22.25;;
10667;SDS011;5382;42.136;24.796;2023-04-08T06:10:34;22.33;;;18.67;;
10667;SDS011;5382;42.136;24.796;2023-04-08T06:13:01;24.48;;;20.10;;
10667;SDS011;5382;42.136;24.796;2023-04-08T06:15:28;24.73;;;14.57;;
10667;SDS011;5382;42.136;24.796;2023-04-08T06:17:56;18.15;;;14.88;;
10667;SDS011;5382;42.136;24.796;2023-04-08T06:20:23;21.42;;;13.68;;
10667;SDS011;5382;42.136;24.796;2023-04-08T06:22:49;23.52;;;16.60;;
10667;SDS011;5382;42.136;24.796;2023-04-08T06:25:16;22.85;;;17.83;;
10667;SDS011;5382;42.136;24.796;2023-04-08T06:27:43;23.08;;;19.13;;
10667;SDS011;5382;42.136;24.796;2023-04-08T06:30:10;25.85;;;19.77;;
10667;SDS011;5382;42.136;24.796;2023-04-08T06:32:37;23.67;;;15.50;;
10667;SDS011;5382;42.136;24.796;2023-04-08T06:35:06;24.35;;;18.13;;
10667;SDS011;5382;42.136;24.796;2023-04-08T06:37:33;20.10;;;13.45;;
10667;SDS011;5382;42.136;24.796;2023-04-08T06:40:02;22.10;;;17.30;;
10667;SDS011;5382;42.136;24.796;2023-04-08T06:42:30;24.73;;;15.10;;
10667;SDS011;5382;42.136;24.796;2023-04-08T06:44:57;22.10;;;15.40;;
10667;SDS011;5382;42.136;24.796;2023-04-08T06:47:24;24.73;;;20.33;;
10667;SDS011;5382;42.136;24.796;2023-04-08T06:49:50;22.20;;;19.05;;
10667;SDS011;5382;42.136;24.796;2023-04-08T06:52:19;27.35;;;18.75;;
10667;SDS011;5382;42.136;24.796;2023-04-08T06:54:46;25.08;;;18.80;;
10667;SDS011;5382;42.136;24.796;2023-04-08T06:57:13;24.08;;;17.80;;
10667;SDS011;5382;42.136;24.796;2023-04-08T06:59:40;23.92;;;17.00;;
10667;SDS011;5382;42.136;24.796;2023-04-08T07:02:07;22.23;;;18.30;;
10667;SDS011;5382;42.136;24.796;2023-04-08T07:04:33;19.95;;;14.38;;
10667;SDS011;5382;42.136;24.796;2023-04-08T07:07:01;20.15;;;13.55;;
10667;SDS011;5382;42.136;24.796;2023-04-08T07:09:29;22.38;;;17.77;;
10667;SDS011;5382;42.136;24.796;2023-04-08T07:11:56;22.33;;;16.92;;
10667;SDS011;5382;42.136;24.796;2023-04-08T07:14:24;22.38;;;18.17;;
10667;SDS011;5382;42.136;24.796;2023-04-08T07:16:50;18.90;;;13.50;;
10667;SDS011;5382;42.136;24.796;2023-04-08T07:19:17;20.02;;;17.30;;
10667;SDS011;5382;42.136;24.796;2023-04-08T07:21:45;21.40;;;16.83;;
10667;SDS011;5382;42.136;24.796;2023-04-08T07:24:11;22.20;;;14.43;;
10667;SDS011;5382;42.136;24.796;2023-04-08T07:26:40;20.80;;;17.45;;
10667;SDS011;5382;42.136;24.796;2023-04-08T07:29:07;27.75;;;18.10;;
10667;SDS011;5382;42.136;24.796;2023-04-08T07:31:33;18.60;;;13.85;;
10667;SDS011;5382;42.136;24.796;2023-04-08T07:34:00;21.45;;;16.25;;
10667;SDS011;5382;42.136;24.796;2023-04-08T07:36:27;20.25;;;17.35;;
10667;SDS011;5382;42.136;24.796;2023-04-08T07:38:54;20.08;;;14.20;;
10667;SDS011;5382;42.136;24.796;2023-04-08T07:41:21;20.00;;;17.13;;
10667;SDS011;5382;42.136;24.796;2023-04-08T07:43:49;20.25;;;17.23;;
10667;SDS011;5382;42.136;24.796;2023-04-08T07:46:16;24.88;;;18.48;;
10667;SDS011;5382;42.136;24.796;2023-04-08T07:48:42;22.50;;;17.20;;
10667;SDS011;5382;42.136;24.796;2023-04-08T07:51:09;23.90;;;13.65;;
10667;SDS011;5382;42.136;24.796;2023-04-08T07:53:36;20.45;;;18.23;;
10667;SDS011;5382;42.136;24.796;2023-04-08T07:56:09;20.23;;;18.02;;
10667;SDS011;5382;42.136;24.796;2023-04-08T07:58:37;20.10;;;13.20;;
10667;SDS011;5382;42.136;24.796;2023-04-08T08:01:12;24.00;;;17.42;;
10667;SDS011;5382;42.136;24.796;2023-04-08T08:03:40;22.55;;;18.52;;
10667;SDS011;5382;42.136;24.796;2023-04-08T08:06:07;22.95;;;18.40;;
10667;SDS011;5382;42.136;24.796;2023-04-08T08:08:33;44.17;;;19.45;;
10667;SDS011;5382;42.136;24.796;2023-04-08T08:11:00;20.58;;;17.27;;
10667;SDS011;5382;42.136;24.796;2023-04-08T08:13:27;22.48;;;17.38;;
10667;SDS011;5382;42.136;24.796;2023-04-08T08:15:54;22.98;;;18.33;;
10667;SDS011;5382;42.136;24.796;2023-04-08T08:18:22;22.90;;;17.08;;
10667;SDS011;5382;42.136;24.796;2023-04-08T08:20:49;21.80;;;17.92;;
10667;SDS011;5382;42.136;24.796;2023-04-08T08:23:16;21.58;;;17.70;;
10667;SDS011;5382;42.136;24.796;2023-04-08T08:25:42;20.08;;;17.90;;
10667;SDS011;5382;42.136;24.796;2023-04-08T08:28:09;21.27;;;13.55;;
10667;SDS011;5382;42.136;24.796;2023-04-08T08:30:36;22.15;;;17.88;;
10667;SDS011;5382;42.136;24.796;2023-04-08T08:33:03;19.85;;;17.75;;
10667;SDS011;5382;42.136;24.796;2023-04-08T08:35:31;20.00;;;16.70;;
10667;SDS011;5382;42.136;24.796;2023-04-08T08:37:58;19.23;;;17.23;;
10667;SDS011;5382;42.136;24.796;2023-04-08T08:40:25;18.15;;;14.38;;
10667;SDS011;5382;42.136;24.796;2023-04-08T08:42:52;19.33;;;14.55;;
10667;SDS011;5382;42.136;24.796;2023-04-08T08:45:19;21.77;;;17.50;;
10667;SDS011;5382;42.136;24.796;2023-04-08T08:47:46;21.15;;;17.10;;
10667;SDS011;5382;42.136;24.796;2023-04-08T08:50:13;17.92;;;15.77;;
10667;SDS011;5382;42.136;24.796;2023-04-08T08:52:48;18.90;;;16.42;;
10667;SDS011;5382;42.136;24.796;2023-04-08T08:55:16;23.17;;;16.13;;
10667;SDS011;5382;42.136;24.796;2023-04-08T08:57:43;17.65;;;15.88;;
10667;SDS011;5382;42.136;24.796;2023-04-08T09:00:11;19.95;;;16.80;;
10667;SDS011;5382;42.136;24.796;2023-04-08T09:02:40;19.08;;;16.20;;
10667;SDS011;5382;42.136;24.796;2023-04-08T09:05:07;19.55;;;16.83;;
10667;SDS011;5382;42.136;24.796;2023-04-08T09:07:34;17.02;;;15.23;;
10667;SDS011;5382;42.136;24.796;2023-04-08T09:10:06;18.33;;;15.10;;
10667;SDS011;5382;42.136;24.796;2023-04-08T09:12:34;33.78;;;16.85;;
10667;SDS011;5382;42.136;24.796;2023-04-08T09:15:19;16.90;;;15.07;;
10667;SDS011;5382;42.136;24.796;2023-04-08T09:17:46;14.63;;;13.13;;
10667;SDS011;5382;42.136;24.796;2023-04-08T09:20:13;17.00;;;13.45;;
10667;SDS011;5382;42.136;24.796;2023-04-08T09:22:55;15.40;;;12.98;;
10667;SDS011;5382;42.136;24.796;2023-04-08T09:25:25;14.15;;;12.43;;
10667;SDS011;5382;42.136;24.796;2023-04-08T09:27:53;11.93;;;10.70;;
10667;SDS011;5382;42.136;24.796;2023-04-08T09:30:21;11.35;;;10.23;;
10667;SDS011;5382;42.136;24.796;2023-04-08T09:32:49;11.02;;;10.00;;
10667;SDS011;5382;42.136;24.796;2023-04-08T09:35:17;14.57;;;11.52;;
10667;SDS011;5382;42.136;24.796;2023-04-08T09:37:44;14.27;;;11.82;;
10667;SDS011;5382;42.136;24.796;2023-04-08T09:40:12;13.77;;;12.43;;
10667;SDS011;5382;42.136;24.796;2023-04-08T09:42:43;13.13;;;11.77;;
10667;SDS011;5382;42.136;24.796;2023-04-08T09:45:12;13.77;;;12.38;;
10667;SDS011;5382;42.136;24.796;2023-04-08T09:47:41;13.75;;;12.35;;
10667;SDS011;5382;42.136;24.796;2023-04-08T09:50:18;15.00;;;13.40;;
10667;SDS011;5382;42.136;24.796;2023-04-08T09:52:51;16.52;;;14.13;;
10667;SDS011;5382;42.136;24.796;2023-04-08T09:55:22;15.32;;;13.77;;
10667;SDS011;5382;42.136;24.796;2023-04-08T09:57:57;15.60;;;13.85;;
10667;SDS011;5382;42.136;24.796;2023-04-08T10:00:28;15.50;;;13.48;;
10667;SDS011;5382;42.136;24.796;2023-04-08T10:03:01;14.70;;;13.20;;
10667;SDS011;5382;42.136;24.796;2023-04-08T10:05:35;14.73;;;13.23;;
10667;SDS011;5382;42.136;24.796;2023-04-08T10:08:03;16.20;;;14.02;;
10667;SDS011;5382;42.136;24.796;2023-04-08T10:10:32;14.77;;;13.23;;
10667;SDS011;5382;42.136;24.796;2023-04-08T10:13:02;16.85;;;14.43;;
10667;SDS011;5382;42.136;24.796;2023-04-08T10:15:30;16.08;;;12.98;;
10667;SDS011;5382;42.136;24.796;2023-04-08T10:21:01;14.63;;;13.05;;
10667;SDS011;5382;42.136;24.796;2023-04-08T10:26:29;13.93;;;12.50;;
10667;SDS011;5382;42.136;24.796;2023-04-08T10:32:08;14.25;;;12.82;;
10667;SDS011;5382;42.136;24.796;2023-04-08T10:34:52;15.40;;;13.35;;
10667;SDS011;5382;42.136;24.796;2023-04-08T10:37:19;14.65;;;13.15;;
10667;SDS011;5382;42.136;24.796;2023-04-08T10:39:49;14.25;;;12.75;;
10667;SDS011;5382;42.136;24.796;2023-04-08T10:42:19;14.88;;;12.55;;
10667;SDS011;5382;42.136;24.796;2023-04-08T10:44:51;13.98;;;12.57;;
10667;SDS011;5382;42.136;24.796;2023-04-08T10:47:25;12.80;;;11.60;;
10667;SDS011;5382;42.136;24.796;2023-04-08T10:49:52;13.50;;;12.27;;
10667;SDS011;5382;42.136;24.796;2023-04-08T10:52:19;15.23;;;12.23;;
10667;SDS011;5382;42.136;24.796;2023-04-08T10:54:48;14.60;;;12.57;;
10667;SDS011;5382;42.136;24.796;2023-04-08T10:57:22;13.57;;;12.15;;
10667;SDS011;5382;42.136;24.796;2023-04-08T10:59:49;13.20;;;11.77;;
10667;SDS011;5382;42.136;24.796;2023-04-08T11:02:16;15.52;;;12.27;;
10667;SDS011;5382;42.136;24.796;2023-04-08T11:04:44;13.73;;;12.32;;
10667;SDS011;5382;42.136;24.796;2023-04-08T11:07:12;13.15;;;11.75;;
10667;SDS011;5382;42.136;24.796;2023-04-08T11:09:39;13.73;;;11.90;;
10667;SDS011;5382;42.136;24.796;2023-04-08T11:12:06;13.40;;;12.10;;
10667;SDS011;5382;42.136;24.796;2023-04-08T11:14:33;17.23;;;11.77;;
10667;SDS011;5382;42.136;24.796;2023-04-08T11:17:02;13.30;;;11.80;;
10667;SDS011;5382;42.136;24.796;2023-04-08T11:19:30;12.50;;;11.27;;
10667;SDS011;5382;42.136;24.796;2023-04-08T11:21:58;12.65;;;11.38;;
10667;SDS011;5382;42.136;24.796;2023-04-08T11:24:25;12.73;;;11.40;;
10667;SDS011;5382;42.136;24.796;2023-04-08T11:26:52;13.45;;;11.98;;
10667;SDS011;5382;42.136;24.796;2023-04-08T11:29:19;12.35;;;11.25;;
10667;SDS011;5382;42.136;24.796;2023-04-08T11:31:46;13.27;;;11.50;;
10667;SDS011;5382;42.136;24.796;2023-04-08T11:34:20;12.80;;;11.55;;
10667;SDS011;5382;42.136;24.796;2023-04-08T11:36:47;12.57;;;11.25;;
10667;SDS011;5382;42.136;24.796;2023-04-08T11:39:16;13.45;;;11.05;;
10667;SDS011;5382;42.136;24.796;2023-04-08T11:41:43;13.68;;;11.35;;
10667;SDS011;5382;42.136;24.796;2023-04-08T11:44:10;11.57;;;10.48;;
10667;SDS011;5382;42.136;24.796;2023-04-08T11:46:36;11.70;;;10.60;;
10667;SDS011;5382;42.136;24.796;2023-04-08T11:49:05;11.68;;;10.45;;
10667;SDS011;5382;42.136;24.796;2023-04-08T11:51:34;11.07;;;9.93;;
10667;SDS011;5382;42.136;24.796;2023-04-08T11:54:26;12.13;;;10.38;;
10667;SDS011;5382;42.136;24.796;2023-04-08T11:56:53;10.25;;;9.18;;
10667;SDS011;5382;42.136;24.796;2023-04-08T11:59:22;10.75;;;9.65;;
10667;SDS011;5382;42.136;24.796;2023-04-08T12:01:50;11.07;;;9.98;;
10667;SDS011;5382;42.136;24.796;2023-04-08T12:04:17;11.38;;;10.18;;
10667;SDS011;5382;42.136;24.796;2023-04-08T12:06:44;13.60;;;10.40;;
10667;SDS011;5382;42.136;24.796;2023-04-08T12:09:11;11.10;;;10.00;;
10667;SDS011;5382;42.136;24.796;2023-04-08T12:11:39;24.77;;;9.18;;
10667;SDS011;5382;42.136;24.796;2023-04-08T12:14:06;9.65;;;8.75;;
10667;SDS011;5382;42.136;24.796;2023-04-08T12:16:33;11.98;;;9.45;;
10667;SDS011;5382;42.136;24.796;2023-04-08T12:19:00;10.00;;;9.00;;
10667;SDS011;5382;42.136;24.796;2023-04-08T12:21:27;9.70;;;8.82;;
10667;SDS011;5382;42.136;24.796;2023-04-08T12:23:54;10.07;;;8.70;;
10667;SDS011;5382;42.136;24.796;2023-04-08T12:26:21;11.02;;;8.60;;
10667;SDS011;5382;42.136;24.796;2023-04-08T12:28:49;9.30;;;8.48;;
10667;SDS011;5382;42.136;24.796;2023-04-08T12:31:16;9.75;;;7.95;;
10667;SDS011;5382;42.136;24.796;2023-04-08T12:33:43;13.13;;;9.18;;
10667;SDS011;5382;42.136;24.796;2023-04-08T12:36:09;8.60;;;7.80;;
10667;SDS011;5382;42.136;24.796;2023-04-08T12:38:36;8.75;;;7.95;;
10667;SDS011;5382;42.136;24.796;2023-04-08T12:41:03;9.25;;;7.93;;
10667;SDS011;5382;42.136;24.796;2023-04-08T12:43:30;9.65;;;8.27;;
10667;SDS011;5382;42.136;24.796;2023-04-08T12:46:00;8.75;;;7.78;;
10667;SDS011;5382;42.136;24.796;2023-04-08T12:48:27;9.30;;;8.40;;
10667;SDS011;5382;42.136;24.796;2023-04-08T12:50:54;8.43;;;7.63;;
10667;SDS011;5382;42.136;24.796;2023-04-08T12:53:20;8.93;;;8.10;;
10667;SDS011;5382;42.136;24.796;2023-04-08T12:55:47;10.05;;;7.95;;
10667;SDS011;5382;42.136;24.796;2023-04-08T12:58:15;8.30;;;7.60;;
10667;SDS011;5382;42.136;24.796;2023-04-08T13:00:42;7.78;;;7.05;;
10667;SDS011;5382;42.136;24.796;2023-04-08T13:03:12;8.45;;;7.65;;
10667;SDS011;5382;42.136;24.796;2023-04-08T13:05:41;9.00;;;7.95;;
10667;SDS011;5382;42.136;24.796;2023-04-08T13:08:08;9.38;;;8.13;;
10667;SDS011;5382;42.136;24.796;2023-04-08T13:10:35;8.18;;;6.93;;
10667;SDS011;5382;42.136;24.796;2023-04-08T13:13:02;9.57;;;8.55;;
10667;SDS011;5382;42.136;24.796;2023-04-08T13:15:29;8.60;;;7.68;;
10667;SDS011;5382;42.136;24.796;2023-04-08T13:17:56;8.13;;;7.38;;
10667;SDS011;5382;42.136;24.796;2023-04-08T13:20:24;8.20;;;7.28;;
10667;SDS011;5382;42.136;24.796;2023-04-08T13:22:51;8.80;;;7.97;;
10667;SDS011;5382;42.136;24.796;2023-04-08T13:25:18;8.23;;;7.43;;
10667;SDS011;5382;42.136;24.796;2023-04-08T13:27:45;7.97;;;7.18;;
10667;SDS011;5382;42.136;24.796;2023-04-08T13:30:12;9.38;;;7.78;;
10667;SDS011;5382;42.136;24.796;2023-04-08T13:32:39;6.57;;;5.97;;
10667;SDS011;5382;42.136;24.796;2023-04-08T13:35:06;7.00;;;6.13;;
10667;SDS011;5382;42.136;24.796;2023-04-08T13:37:35;7.03;;;6.30;;
10667;SDS011;5382;42.136;24.796;2023-04-08T13:40:02;7.40;;;6.70;;
10667;SDS011;5382;42.136;24.796;2023-04-08T13:42:29;6.70;;;6.10;;
10667;SDS011;5382;42.136;24.796;2023-04-08T13:44:56;9.05;;;6.20;;
10667;SDS011;5382;42.136;24.796;2023-04-08T13:47:23;7.13;;;5.97;;
10667;SDS011;5382;42.136;24.796;2023-04-08T13:49:51;6.38;;;5.70;;
10667;SDS011;5382;42.136;24.796;2023-04-08T13:52:18;6.88;;;6.20;;
10667;SDS011;5382;42.136;24.796;2023-04-08T13:54:46;6.88;;;6.18;;
10667;SDS011;5382;42.136;24.796;2023-04-08T13:57:13;5.57;;;4.90;;
10667;SDS011;5382;42.136;24.796;2023-04-08T13:59:40;5.45;;;5.03;;
10667;SDS011;5382;42.136;24.796;2023-04-08T14:02:07;6.07;;;5.05;;
10667;SDS011;5382;42.136;24.796;2023-04-08T14:04:34;43.20;;;6.82;;
10667;SDS011;5382;42.136;24.796;2023-04-08T14:07:00;4.47;;;3.40;;
10667;SDS011;5382;42.136;24.796;2023-04-08T14:09:27;4.28;;;3.75;;
10667;SDS011;5382;42.136;24.796;2023-04-08T14:11:56;4.75;;;3.60;;
10667;SDS011;5382;42.136;24.796;2023-04-08T14:14:23;3.70;;;3.40;;
10667;SDS011;5382;42.136;24.796;2023-04-08T14:16:50;4.35;;;3.55;;
10667;SDS011;5382;42.136;24.796;2023-04-08T14:19:17;10.52;;;3.97;;
10667;SDS011;5382;42.136;24.796;2023-04-08T14:21:43;3.65;;;3.17;;
10667;SDS011;5382;42.136;24.796;2023-04-08T14:24:10;3.58;;;3.22;;
10667;SDS011;5382;42.136;24.796;2023-04-08T14:26:37;4.28;;;3.97;;
10667;SDS011;5382;42.136;24.796;2023-04-08T14:29:06;30.45;;;6.53;;
10667;SDS011;5382;42.136;24.796;2023-04-08T14:31:33;4.05;;;3.75;;
10667;SDS011;5382;42.136;24.796;2023-04-08T14:34:01;5.35;;;3.83;;
10667;SDS011;5382;42.136;24.796;2023-04-08T14:36:28;5.40;;;3.92;;
10667;SDS011;5382;42.136;24.796;2023-04-08T14:38:57;4.10;;;3.80;;
10667;SDS011;5382;42.136;24.796;2023-04-08T14:41:24;4.35;;;4.00;;
10667;SDS011;5382;42.136;24.796;2023-04-08T14:43:51;3.97;;;3.47;;